Time;durP1;ratioP1;P1;durP2;ratioP2;P2;SDS_P1;SDS_P2;PMS_P1;PMS_P2;Temp;Humidity;BMP_temperature;BMP_pressure;BME280_temperature;BME280_humidity;BME280_pressure;Samples;Min_cycle;Max_cycle;Signal;HPM_P1;HPM_P2
2021/12/19 00:00:11;;;;;;;3.67;0.97;;;10.30;99.90;;;;;;5112873;27;20181;-67
2021/12/19 00:08:50;;;;;;;8.20;1.23;;;10.40;99.90;;;;;;5115960;27;20191;-66
2021/12/19 00:11:37;;;;;;;12.47;1.57;;;10.50;99.90;;;;;;5110023;27;20276;-67
2021/12/19 00:14:24;;;;;;;5.10;1.40;;;10.50;99.90;;;;;;5105151;27;20438;-67
2021/12/19 00:17:10;;;;;;;4.57;1.00;;;10.50;99.90;;;;;;5118338;27;20726;-65
2021/12/19 00:19:57;;;;;;;5.63;1.23;;;10.50;99.90;;;;;;5115741;28;20295;-66
2021/12/19 00:22:44;;;;;;;6.07;1.20;;;10.50;99.90;;;;;;5119026;28;20640;-66
2021/12/19 00:25:30;;;;;;;2.80;1.00;;;10.50;99.90;;;;;;5110348;27;20185;-66
2021/12/19 00:28:17;;;;;;;5.23;1.13;;;10.50;99.90;;;;;;5101655;28;20651;-66
2021/12/19 00:31:06;;;;;;;6.03;1.10;;;10.50;99.90;;;;;;5110685;28;20176;-67
2021/12/19 00:33:53;;;;;;;9.73;1.50;;;10.60;99.90;;;;;;5118141;27;20197;-67
2021/12/19 00:36:42;;;;;;;7.57;1.40;;;10.60;99.90;;;;;;5113918;28;20180;-66
2021/12/19 00:39:30;;;;;;;8.90;1.60;;;10.60;99.90;;;;;;5117584;28;20352;-66
2021/12/19 00:42:35;;;;;;;4.57;1.07;;;10.60;99.90;;;;;;5105783;28;20188;-65
2021/12/19 00:45:30;;;;;;;9.27;1.37;;;10.70;99.90;;;;;;5106634;28;20556;-67
2021/12/19 00:48:17;;;;;;;9.13;1.50;;;10.70;99.90;;;;;;5111471;28;20189;-66
2021/12/19 00:51:07;;;;;;;4.83;1.10;;;10.60;99.90;;;;;;5108178;28;20265;-66
2021/12/19 00:53:55;;;;;;;5.80;1.03;;;10.60;99.90;;;;;;5104143;27;20223;-67
2021/12/19 00:56:46;;;;;;;7.63;2.10;;;10.50;99.90;;;;;;5111359;27;20189;-65
2021/12/19 00:59:32;;;;;;;4.27;1.20;;;10.50;99.90;;;;;;5116841;28;20223;-67
2021/12/19 01:02:22;;;;;;;6.40;1.47;;;10.60;99.90;;;;;;5115801;28;20185;-67
2021/12/19 01:05:10;;;;;;;6.60;1.60;;;10.40;99.90;;;;;;5092865;28;20897;-66
2021/12/19 01:07:57;;;;;;;5.43;1.53;;;10.40;99.90;;;;;;5115393;28;20192;-67
2021/12/19 01:10:46;;;;;;;5.10;1.37;;;10.30;99.90;;;;;;5103158;28;20405;-66
2021/12/19 01:13:33;;;;;;;4.83;1.20;;;10.30;99.90;;;;;;5116487;28;20376;-65
2021/12/19 01:16:20;;;;;;;9.27;1.50;;;10.40;99.90;;;;;;5110264;28;20839;-65
2021/12/19 01:19:07;;;;;;;5.47;1.50;;;10.40;99.90;;;;;;5117829;27;20720;-66
2021/12/19 01:21:53;;;;;;;10.03;1.70;;;10.40;99.90;;;;;;5111535;27;20603;-65
2021/12/19 01:24:40;;;;;;;6.33;1.80;;;10.50;99.90;;;;;;5115350;27;20177;-68
2021/12/19 01:27:27;;;;;;;5.70;1.50;;;10.40;99.90;;;;;;5111194;27;20593;-67
2021/12/19 01:30:16;;;;;;;6.83;1.53;;;10.30;99.90;;;;;;5114122;27;20313;-68
2021/12/19 01:33:03;;;;;;;4.40;1.10;;;10.30;99.90;;;;;;5107263;27;20663;-68
2021/12/19 01:35:50;;;;;;;7.23;1.40;;;10.30;99.90;;;;;;5106936;27;20327;-67
2021/12/19 01:38:37;;;;;;;5.50;1.33;;;10.20;99.90;;;;;;5121543;27;20299;-68
2021/12/19 01:41:24;;;;;;;6.43;1.60;;;10.20;99.90;;;;;;5101263;27;20185;-67
2021/12/19 01:44:10;;;;;;;14.97;1.87;;;10.20;99.90;;;;;;5100839;27;20205;-66
2021/12/19 01:46:59;;;;;;;9.47;1.77;;;10.20;99.90;;;;;;5101921;28;20515;-67
2021/12/19 01:49:45;;;;;;;4.97;1.63;;;10.20;99.90;;;;;;5100101;28;20267;-67
2021/12/19 01:52:32;;;;;;;7.50;1.60;;;10.20;99.90;;;;;;5085724;28;20190;-68
2021/12/19 01:55:19;;;;;;;7.13;1.53;;;10.20;99.90;;;;;;5093793;28;20592;-66
2021/12/19 01:58:07;;;;;;;9.57;1.33;;;10.20;99.90;;;;;;5072466;28;20197;-67
2021/12/19 02:00:57;;;;;;;8.43;1.70;;;10.20;99.90;;;;;;5095493;28;20611;-66
2021/12/19 02:03:43;;;;;;;8.30;1.67;;;10.20;99.90;;;;;;5099893;28;20185;-67
2021/12/19 02:06:30;;;;;;;5.83;1.73;;;10.20;99.90;;;;;;5093632;28;20559;-67
2021/12/19 02:09:18;;;;;;;4.07;1.40;;;10.10;99.90;;;;;;5093443;28;20422;-67
2021/12/19 02:12:05;;;;;;;7.53;1.50;;;10.10;99.90;;;;;;5098428;28;20201;-66
2021/12/19 02:14:52;;;;;;;5.70;1.47;;;10.20;99.90;;;;;;5087916;28;20190;-67
2021/12/19 02:17:38;;;;;;;8.93;3.77;;;10.10;99.90;;;;;;5078829;28;20197;-65
2021/12/19 02:20:31;;;;;;;3.70;1.30;;;10.10;99.90;;;;;;5103461;28;20189;-66
2021/12/19 02:23:21;;;;;;;13.10;2.00;;;10.10;99.90;;;;;;5088964;28;20204;-65
2021/12/19 02:26:10;;;;;;;9.73;2.05;;;10.20;99.90;;;;;;5082002;28;20614;-64
2021/12/19 02:28:56;;;;;;;6.63;1.87;;;10.20;99.90;;;;;;5107729;27;20188;-65
2021/12/19 02:31:45;;;;;;;10.47;1.90;;;10.10;99.90;;;;;;5101754;28;20695;-64
2021/12/19 02:34:40;;;;;;;10.23;2.03;;;10.10;99.90;;;;;;5102952;28;20205;-63
2021/12/19 02:49:26;;;;;;;8.27;1.83;;;10.20;99.90;;;;;;5123094;27;20188;-66
2021/12/19 02:52:17;;;;;;;4.33;1.80;;;10.20;99.90;;;;;;5109685;27;20203;-66
2021/12/19 02:55:06;;;;;;;4.90;1.53;;;10.20;99.90;;;;;;5125365;27;20544;-67
2021/12/19 02:57:54;;;;;;;6.57;1.40;;;10.20;99.90;;;;;;5113082;27;20307;-66
2021/12/19 03:00:41;;;;;;;7.60;1.90;;;10.20;99.90;;;;;;5119293;27;20234;-65
2021/12/19 03:03:28;;;;;;;11.67;2.10;;;10.20;99.90;;;;;;5110298;27;21603;-65
2021/12/19 03:06:14;;;;;;;15.40;2.10;;;10.20;99.90;;;;;;5122547;27;20527;-68
2021/12/19 03:09:06;;;;;;;11.67;1.90;;;10.10;99.90;;;;;;5116015;27;20252;-67
2021/12/19 03:12:09;;;;;;;7.83;1.70;;;10.10;99.90;;;;;;5118138;27;20189;-68
2021/12/19 03:18:11;;;;;;;8.63;1.60;;;10.00;99.90;;;;;;5107642;27;20729;-67
2021/12/19 03:20:58;;;;;;;8.70;2.10;;;10.00;99.90;;;;;;5122345;27;20185;-68
2021/12/19 03:23:45;;;;;;;8.87;1.60;;;10.10;99.90;;;;;;5124547;27;20181;-68
2021/12/19 03:26:32;;;;;;;6.90;1.57;;;10.10;99.90;;;;;;5119985;27;20533;-68
2021/12/19 03:29:19;;;;;;;9.03;1.80;;;10.10;99.90;;;;;;5104013;27;20188;-64
2021/12/19 03:32:05;;;;;;;12.03;1.80;;;10.10;99.90;;;;;;5123256;27;20271;-64
2021/12/19 03:34:52;;;;;;;10.47;1.87;;;10.10;99.90;;;;;;5108213;27;20233;-64
2021/12/19 03:37:40;;;;;;;11.23;2.00;;;10.00;99.90;;;;;;5124956;27;20260;-63
2021/12/19 03:40:38;;;;;;;10.93;1.83;;;10.00;99.90;;;;;;5123957;27;20572;-64
2021/12/19 03:43:25;;;;;;;5.50;1.60;;;10.00;99.90;;;;;;5106280;27;20185;-64
2021/12/19 03:46:12;;;;;;;6.27;1.50;;;10.00;99.90;;;;;;5128671;27;20264;-65
2021/12/19 03:48:59;;;;;;;7.33;1.70;;;10.00;99.90;;;;;;5116242;27;20188;-63
2021/12/19 03:51:48;;;;;;;9.07;1.67;;;10.00;99.90;;;;;;5120242;27;20188;-64
2021/12/19 03:54:36;;;;;;;3.53;1.03;;;10.00;99.90;;;;;;5105056;28;20182;-65
2021/12/19 03:57:23;;;;;;;8.43;1.50;;;10.10;99.90;;;;;;5115494;27;20189;-65
2021/12/19 04:00:15;;;;;;;7.00;1.93;;;10.10;99.90;;;;;;5119021;27;20270;-65
2021/12/19 04:03:08;;;;;;;7.50;1.60;;;10.10;99.90;;;;;;5104840;27;20204;-64
2021/12/19 04:05:55;;;;;;;10.97;1.80;;;10.00;99.90;;;;;;5099516;28;20710;-65
2021/12/19 04:08:42;;;;;;;8.90;1.83;;;10.00;99.90;;;;;;5111781;27;20214;-65
2021/12/19 04:11:30;;;;;;;7.17;1.63;;;10.00;99.90;;;;;;5113512;27;20863;-65
2021/12/19 04:14:17;;;;;;;8.17;1.80;;;10.00;99.90;;;;;;5114963;27;20233;-64
2021/12/19 04:17:04;;;;;;;4.90;1.73;;;10.00;99.90;;;;;;5123355;27;20184;-67
2021/12/19 04:19:50;;;;;;;7.33;1.90;;;10.10;99.90;;;;;;5115335;27;20709;-66
2021/12/19 04:22:37;;;;;;;7.60;1.83;;;10.10;99.90;;;;;;5115143;28;20176;-63
2021/12/19 04:25:25;;;;;;;10.97;2.03;;;10.00;99.90;;;;;;5128660;27;20188;-67
2021/12/19 04:28:11;;;;;;;6.23;1.67;;;10.00;99.90;;;;;;5114914;28;20836;-64
2021/12/19 04:31:00;;;;;;;5.53;1.50;;;10.00;99.90;;;;;;5105513;27;20856;-65
2021/12/19 04:33:47;;;;;;;6.63;1.93;;;10.00;99.90;;;;;;5097253;28;20720;-65
2021/12/19 04:36:39;;;;;;;9.17;1.80;;;9.90;99.90;;;;;;5109225;28;20189;-67
2021/12/19 04:57:30;;;;;;;10.20;1.80;;;9.90;99.90;;;;;;5095749;28;20646;-65
2021/12/19 05:00:31;;;;;;;5.40;1.47;;;9.90;99.90;;;;;;5106367;28;20274;-67
2021/12/19 05:15:25;;;;;;;5.53;1.43;;;9.80;99.90;;;;;;5096514;28;20193;-65
2021/12/19 05:18:12;;;;;;;6.50;1.73;;;9.90;99.90;;;;;;5107230;28;20189;-68
2021/12/19 05:21:04;;;;;;;5.60;1.70;;;9.90;99.90;;;;;;5106965;28;20184;-66
2021/12/19 05:26:44;;;;;;;3.53;1.50;;;9.90;99.90;;;;;;5104943;28;20218;-66
2021/12/19 05:29:36;;;;;;;6.47;2.07;;;9.80;99.90;;;;;;5087306;28;20227;-66
2021/12/19 05:32:22;;;;;;;7.67;1.43;;;9.80;99.90;;;;;;5091155;28;20178;-67
2021/12/19 05:35:14;;;;;;;8.23;1.90;;;9.80;99.90;;;;;;5102045;28;20564;-66
2021/12/19 05:45:12;;;;;;;3.87;1.40;;;9.90;99.90;;;;;;5101638;28;20193;-66
2021/12/19 05:47:21;;;;;;;5.60;1.50;;;10.00;99.90;;;;;;5096040;28;20182;-66
2021/12/19 05:50:09;;;;;;;9.77;1.53;;;10.00;99.90;;;;;;5089976;28;20242;-66
2021/12/19 05:52:55;;;;;;;9.70;1.70;;;10.10;99.90;;;;;;5102984;28;20235;-65
2021/12/19 05:55:42;;;;;;;5.10;1.67;;;10.10;99.90;;;;;;5100451;28;20189;-65
2021/12/19 05:58:30;;;;;;;8.77;1.60;;;10.10;99.90;;;;;;5091793;28;20227;-66
2021/12/19 06:01:16;;;;;;;7.53;1.70;;;10.10;99.90;;;;;;5087110;28;20190;-65
2021/12/19 06:04:03;;;;;;;6.60;1.47;;;10.00;99.90;;;;;;5095345;27;20860;-65
2021/12/19 06:06:51;;;;;;;6.97;1.40;;;10.00;99.90;;;;;;5091414;28;20180;-65
2021/12/19 06:09:38;;;;;;;4.20;1.23;;;10.00;99.90;;;;;;5090619;28;20178;-66
2021/12/19 06:12:24;;;;;;;4.43;1.60;;;10.10;99.90;;;;;;5085262;28;20820;-68
2021/12/19 06:15:11;;;;;;;5.83;1.50;;;10.10;99.90;;;;;;5099134;28;20654;-65
2021/12/19 06:17:58;;;;;;;10.97;1.70;;;10.20;99.90;;;;;;5086104;28;20190;-66
2021/12/19 06:20:44;;;;;;;5.30;1.47;;;10.20;99.90;;;;;;5071533;28;20258;-66
2021/12/19 06:23:33;;;;;;;2.80;1.20;;;10.30;99.90;;;;;;5104029;28;20667;-66
2021/12/19 06:26:19;;;;;;;6.73;1.60;;;10.30;99.90;;;;;;5103529;28;20200;-65
2021/12/19 06:29:06;;;;;;;5.10;1.83;;;10.30;99.90;;;;;;5106492;28;20189;-66
2021/12/19 06:31:53;;;;;;;10.70;1.70;;;10.30;99.90;;;;;;5105147;28;20690;-65
2021/12/19 06:34:39;;;;;;;5.60;1.30;;;10.40;99.90;;;;;;5099811;27;20684;-66
2021/12/19 06:37:26;;;;;;;6.37;1.47;;;10.40;99.90;;;;;;5102387;28;20368;-64
2021/12/19 06:40:19;;;;;;;2.93;1.00;;;10.40;99.90;;;;;;5097504;28;20271;-67
2021/12/19 06:43:07;;;;;;;4.67;1.67;;;10.50;99.90;;;;;;5096999;28;20266;-68
2021/12/19 06:45:55;;;;;;;5.90;0.93;;;10.50;99.90;;;;;;5121923;27;20177;-65
2021/12/19 06:48:42;;;;;;;3.53;1.23;;;10.50;99.90;;;;;;5122381;27;20238;-66
2021/12/19 06:51:32;;;;;;;6.87;1.10;;;10.60;99.90;;;;;;5124969;27;20226;-65
2021/12/19 06:54:19;;;;;;;4.80;1.10;;;10.60;99.90;;;;;;5123393;27;20189;-67
2021/12/19 06:57:06;;;;;;;8.30;1.33;;;10.70;99.90;;;;;;5105222;27;20189;-66
2021/12/19 06:59:52;;;;;;;4.73;1.03;;;10.70;99.90;;;;;;5122203;27;20240;-67
2021/12/19 07:02:39;;;;;;;2.73;1.00;;;10.70;99.90;;;;;;5109675;27;20169;-67
2021/12/19 07:05:26;;;;;;;5.73;1.30;;;10.70;99.90;;;;;;5104684;27;20182;-67
2021/12/19 07:08:13;;;;;;;2.73;1.10;;;10.70;99.90;;;;;;5108424;27;20173;-67
2021/12/19 07:10:59;;;;;;;3.87;1.13;;;10.70;99.90;;;;;;5125732;27;20497;-67
2021/12/19 07:13:46;;;;;;;5.03;1.07;;;10.70;99.90;;;;;;5111615;27;20585;-67
2021/12/19 07:16:33;;;;;;;5.50;1.10;;;10.70;99.90;;;;;;5124266;27;20246;-66
2021/12/19 07:19:20;;;;;;;2.27;0.97;;;10.70;99.90;;;;;;5109651;27;20278;-65
2021/12/19 07:22:07;;;;;;;5.20;1.17;;;10.60;99.90;;;;;;5123731;27;20232;-66
2021/12/19 07:24:56;;;;;;;3.40;0.93;;;10.60;99.90;;;;;;5121376;27;20181;-66
2021/12/19 07:27:43;;;;;;;4.53;1.20;;;10.60;99.90;;;;;;5123116;27;20577;-66
2021/12/19 07:30:31;;;;;;;2.87;1.07;;;10.60;99.90;;;;;;5124443;27;20177;-66
2021/12/19 07:33:18;;;;;;;3.90;0.97;;;10.60;99.90;;;;;;5123577;27;20191;-66
2021/12/19 07:36:05;;;;;;;3.67;1.10;;;10.60;99.90;;;;;;5118535;27;20258;-68
2021/12/19 07:38:59;;;;;;;4.93;1.57;;;10.70;99.90;;;;;;5120289;27;20211;-67
2021/12/19 07:41:46;;;;;;;2.63;1.20;;;10.80;99.90;;;;;;5106878;27;20215;-66
2021/12/19 07:44:34;;;;;;;5.87;1.73;;;10.80;99.90;;;;;;5108918;27;20678;-66
2021/12/19 07:47:21;;;;;;;6.23;1.80;;;10.90;99.90;;;;;;5107211;27;20239;-67
2021/12/19 07:50:10;;;;;;;12.20;2.27;;;10.90;99.90;;;;;;5104341;28;20193;-66
2021/12/19 07:52:58;;;;;;;4.70;1.87;;;11.00;99.90;;;;;;5105159;27;20176;-65
2021/12/19 07:55:45;;;;;;;6.63;1.80;;;11.00;99.90;;;;;;5124452;27;20208;-68
2021/12/19 07:58:34;;;;;;;8.47;2.00;;;11.10;99.90;;;;;;5106368;27;20203;-68
2021/12/19 08:01:21;;;;;;;16.50;2.73;;;11.20;99.90;;;;;;5123661;27;20842;-67
2021/12/19 08:04:10;;;;;;;15.50;2.60;;;11.30;99.90;;;;;;5102988;27;20597;-68
2021/12/19 08:06:57;;;;;;;17.60;3.17;;;11.40;99.90;;;;;;5119059;27;20192;-67
2021/12/19 08:09:59;;;;;;;16.67;3.23;;;11.40;99.90;;;;;;5117642;27;20180;-68
2021/12/19 08:12:46;;;;;;;15.97;2.50;;;11.50;99.90;;;;;;5121317;27;20253;-68
2021/12/19 08:15:34;;;;;;;20.33;3.37;;;11.50;99.90;;;;;;5123400;27;20659;-69
2021/12/19 08:18:21;;;;;;;19.87;3.97;;;11.60;99.90;;;;;;5106951;28;20189;-70
2021/12/19 08:21:07;;;;;;;23.33;3.73;;;11.60;99.90;;;;;;5121494;27;20676;-70
2021/12/19 08:23:58;;;;;;;14.67;3.77;;;11.50;99.90;;;;;;5112410;28;20185;-69
2021/12/19 08:26:46;;;;;;;20.00;3.43;;;11.60;99.90;;;;;;5122314;28;20683;-66
2021/12/19 08:29:33;;;;;;;24.20;3.63;;;11.50;99.90;;;;;;5113580;27;20180;-66
2021/12/19 08:32:19;;;;;;;29.47;4.07;;;11.40;99.90;;;;;;5124127;27;20315;-67
2021/12/19 08:35:10;;;;;;;18.47;3.73;;;11.30;99.90;;;;;;5111803;27;20879;-68
2021/12/19 08:37:57;;;;;;;27.33;3.43;;;11.20;99.90;;;;;;5104419;27;20582;-68
2021/12/19 08:40:45;;;;;;;22.87;3.67;;;11.20;99.90;;;;;;5109317;27;20197;-67
2021/12/19 08:43:32;;;;;;;18.03;3.50;;;11.20;99.90;;;;;;5118202;27;20514;-68
2021/12/19 08:46:19;;;;;;;14.67;3.20;;;11.30;99.90;;;;;;5111226;27;20220;-67
2021/12/19 08:49:07;;;;;;;20.87;4.80;;;11.40;99.90;;;;;;5125435;27;20269;-67
2021/12/19 08:51:54;;;;;;;20.47;4.33;;;11.60;99.90;;;;;;5124725;27;20184;-66
2021/12/19 08:54:43;;;;;;;25.33;4.63;;;11.70;99.90;;;;;;5110191;27;20280;-65
2021/12/19 08:57:30;;;;;;;22.30;4.30;;;11.80;99.90;;;;;;5120677;27;20188;-65
2021/12/19 09:00:19;;;;;;;20.20;4.10;;;11.90;99.90;;;;;;5127343;27;20245;-67
2021/12/19 09:03:05;;;;;;;27.93;4.17;;;12.00;99.90;;;;;;5125406;27;20686;-66
2021/12/19 09:05:52;;;;;;;27.80;4.40;;;12.10;99.90;;;;;;5117354;27;20188;-68
2021/12/19 09:08:39;;;;;;;24.90;5.60;;;12.20;99.90;;;;;;5108771;27;20185;-67
2021/12/19 09:11:26;;;;;;;27.93;4.60;;;12.00;99.90;;;;;;5112701;27;20208;-65
2021/12/19 09:14:12;;;;;;;22.73;3.90;;;11.90;99.90;;;;;;5117980;27;20514;-68
2021/12/19 09:17:01;;;;;;;23.23;4.33;;;11.90;99.90;;;;;;5125343;27;20633;-69
2021/12/19 09:19:48;;;;;;;25.13;4.57;;;12.00;99.90;;;;;;5101253;27;20220;-68
2021/12/19 09:22:38;;;;;;;25.57;3.70;;;11.90;99.90;;;;;;5118538;27;20230;-67
2021/12/19 09:25:26;;;;;;;28.17;4.23;;;11.90;99.90;;;;;;5110238;27;20675;-67
2021/12/19 09:28:18;;;;;;;30.93;4.10;;;11.90;99.90;;;;;;5094839;27;20185;-67
2021/12/19 09:31:06;;;;;;;27.80;4.47;;;11.90;99.90;;;;;;5126496;27;20191;-67
2021/12/19 09:33:55;;;;;;;14.33;2.80;;;11.70;99.90;;;;;;5127362;27;20199;-67
2021/12/19 09:36:42;;;;;;;15.60;3.20;;;11.40;99.90;;;;;;5122359;27;20184;-67
2021/12/19 09:39:32;;;;;;;22.13;4.23;;;11.40;99.90;;;;;;5118648;27;20240;-67
2021/12/19 09:42:23;;;;;;;21.90;4.40;;;11.50;99.90;;;;;;5118423;27;21054;-67
2021/12/19 09:45:11;;;;;;;24.53;3.30;;;11.80;99.90;;;;;;5108085;27;20193;-66
2021/12/19 09:47:59;;;;;;;18.23;3.30;;;11.90;99.90;;;;;;5097310;27;20192;-67
2021/12/19 09:50:48;;;;;;;16.83;3.70;;;11.90;99.90;;;;;;5097796;28;20272;-67
2021/12/19 09:53:37;;;;;;;17.70;2.90;;;11.80;99.90;;;;;;5100391;28;20752;-66
2021/12/19 09:56:24;;;;;;;23.33;3.70;;;11.70;99.90;;;;;;5100400;28;20322;-66
2021/12/19 09:59:18;;;;;;;22.63;3.30;;;11.70;99.90;;;;;;5089153;28;20677;-67
2021/12/19 10:02:05;;;;;;;22.50;3.10;;;11.80;99.90;;;;;;5100127;27;20181;-67
2021/12/19 10:04:53;;;;;;;19.33;3.20;;;11.90;99.90;;;;;;5087433;28;20196;-66
2021/12/19 10:08:21;;;;;;;33.87;4.43;;;11.80;99.90;;;;;;5104242;27;20239;-66
2021/12/19 10:11:42;;;;;;;12.47;2.37;;;11.70;99.90;;;;;;5096728;28;20937;-67
2021/12/19 10:14:36;;;;;;;16.27;3.47;;;11.60;99.90;;;;;;5100240;27;20193;-68
2021/12/19 10:17:23;;;;;;;18.20;3.33;;;11.60;99.90;;;;;;5098094;27;20192;-67
2021/12/19 10:20:14;;;;;;;18.57;3.77;;;11.70;99.90;;;;;;5101645;27;20213;-66
2021/12/19 10:23:31;;;;;;;16.00;2.90;;;11.70;99.90;;;;;;5104354;27;20661;-67
2021/12/19 10:26:17;;;;;;;16.10;2.77;;;11.80;99.90;;;;;;5101584;28;20192;-67
2021/12/19 10:29:04;;;;;;;21.47;3.23;;;11.80;99.90;;;;;;5103719;28;20193;-67
2021/12/19 10:32:05;;;;;;;22.13;3.30;;;11.80;99.90;;;;;;5087273;28;20193;-67
2021/12/19 10:35:19;;;;;;;15.13;3.00;;;11.90;99.90;;;;;;5114943;27;20220;-68
2021/12/19 10:38:13;;;;;;;18.07;3.27;;;12.10;99.90;;;;;;5101108;28;20275;-68
2021/12/19 10:41:22;;;;;;;15.57;2.87;;;12.20;99.90;;;;;;5096520;28;20185;-68
2021/12/19 10:44:11;;;;;;;15.63;2.97;;;12.10;99.90;;;;;;5100226;27;20602;-66
2021/12/19 10:47:27;;;;;;;17.03;2.43;;;12.80;99.90;;;;;;5109248;27;20212;-67
2021/12/19 10:50:14;;;;;;;13.17;2.70;;;12.90;99.90;;;;;;5104517;27;20821;-68
2021/12/19 10:53:05;;;;;;;15.90;2.80;;;13.20;99.90;;;;;;5121146;27;20218;-66
2021/12/19 10:55:52;;;;;;;10.77;2.30;;;13.50;99.90;;;;;;5122232;27;20938;-67
2021/12/19 10:58:52;;;;;;;9.73;2.03;;;13.50;99.90;;;;;;5126580;27;20215;-67
2021/12/19 11:01:44;;;;;;;11.57;2.20;;;13.10;99.90;;;;;;5106991;27;20208;-67
2021/12/19 11:04:35;;;;;;;14.00;2.07;;;12.70;99.90;;;;;;5108404;27;20518;-67
2021/12/19 11:07:22;;;;;;;18.17;2.57;;;12.60;99.90;;;;;;5115238;27;20700;-68
2021/12/19 11:10:31;;;;;;;14.30;2.60;;;12.50;99.90;;;;;;5123387;27;20196;-67
2021/12/19 11:13:18;;;;;;;13.03;2.93;;;12.40;99.90;;;;;;5105403;27;20189;-67
2021/12/19 11:16:05;;;;;;;8.37;2.10;;;12.40;99.90;;;;;;5114127;27;20271;-67
2021/12/19 11:18:52;;;;;;;17.97;2.93;;;12.40;99.90;;;;;;5117674;27;20723;-67
2021/12/19 11:21:39;;;;;;;16.50;3.47;;;12.50;99.90;;;;;;5112827;27;20188;-67
2021/12/19 11:24:27;;;;;;;17.00;3.50;;;12.50;99.90;;;;;;5118239;27;20862;-67
2021/12/19 11:27:14;;;;;;;12.93;2.60;;;12.50;99.90;;;;;;5122311;27;20211;-67
2021/12/19 11:30:00;;;;;;;16.73;2.87;;;12.50;99.90;;;;;;5113870;27;20274;-67
2021/12/19 11:33:41;;;;;;;11.80;2.97;;;12.60;99.90;;;;;;5123921;27;20184;-67
2021/12/19 11:36:37;;;;;;;10.87;2.50;;;12.60;99.90;;;;;;5087687;27;20413;-66
2021/12/19 11:39:36;;;;;;;13.03;2.17;;;12.70;99.90;;;;;;5110961;27;20201;-66
2021/12/19 11:42:35;;;;;;;20.17;3.03;;;12.60;99.90;;;;;;5105512;27;20176;-67
2021/12/19 11:48:30;;;;;;;15.10;2.90;;;12.50;99.90;;;;;;5101645;27;20189;-67
2021/12/19 11:51:20;;;;;;;9.73;2.13;;;12.50;99.90;;;;;;5101564;28;20315;-67
2021/12/19 11:54:18;;;;;;;11.53;2.57;;;12.60;99.90;;;;;;5102288;28;20969;-67
2021/12/19 11:57:11;;;;;;;7.83;1.90;;;12.70;99.90;;;;;;5083779;28;20196;-66
2021/12/19 12:00:32;;;;;;;12.57;2.53;;;12.70;99.90;;;;;;5099051;28;20217;-66
2021/12/19 12:03:21;;;;;;;11.77;2.23;;;12.70;99.90;;;;;;5094852;28;20216;-66
2021/12/19 12:06:25;;;;;;;11.63;1.93;;;12.70;99.90;;;;;;5097404;28;20876;-66
2021/12/19 12:09:40;;;;;;;18.77;2.67;;;12.70;99.90;;;;;;5084648;28;20235;-67
2021/12/19 12:12:34;;;;;;;10.53;2.40;;;12.70;99.90;;;;;;5101026;28;20185;-67
2021/12/19 12:15:33;;;;;;;13.57;2.17;;;12.60;99.90;;;;;;5089462;28;20856;-68
2021/12/19 12:18:41;;;;;;;15.20;2.40;;;12.50;99.90;;;;;;5077887;28;20196;-66
2021/12/19 12:24:24;;;;;;;13.90;2.07;;;12.50;99.90;;;;;;5097138;28;20224;-67
2021/12/19 12:27:13;;;;;;;16.27;2.20;;;12.50;99.90;;;;;;5096999;28;20195;-68
2021/12/19 12:30:00;;;;;;;11.47;2.10;;;12.40;99.90;;;;;;5082625;28;20189;-67
2021/12/19 12:32:47;;;;;;;9.67;1.90;;;12.40;99.90;;;;;;5095851;28;20189;-67
2021/12/19 12:35:38;;;;;;;10.63;2.03;;;12.30;99.90;;;;;;5101617;28;20213;-67
2021/12/19 12:38:26;;;;;;;13.53;1.83;;;12.30;99.90;;;;;;5100941;28;20220;-67
2021/12/19 12:41:27;;;;;;;10.50;2.00;;;12.20;99.90;;;;;;5093989;28;20267;-67
2021/12/19 12:44:23;;;;;;;12.10;2.00;;;12.20;99.90;;;;;;5105091;28;20191;-66
2021/12/19 12:47:17;;;;;;;17.83;2.40;;;12.20;99.90;;;;;;5110390;28;20189;-66
2021/12/19 12:50:05;;;;;;;13.70;2.30;;;12.20;99.90;;;;;;5117090;28;20823;-68
2021/12/19 12:52:54;;;;;;;13.97;2.70;;;12.30;99.90;;;;;;5118672;27;20272;-67
2021/12/19 12:55:41;;;;;;;15.40;2.70;;;12.20;99.90;;;;;;5107925;28;20279;-67
2021/12/19 12:58:27;;;;;;;14.50;2.57;;;12.20;99.90;;;;;;5123239;27;20565;-67
2021/12/19 13:01:23;;;;;;;14.23;2.27;;;12.20;99.90;;;;;;5104851;28;20192;-68
2021/12/19 13:04:26;;;;;;;13.30;3.57;;;12.20;99.90;;;;;;5098521;28;20184;-67
2021/12/19 13:07:15;;;;;;;17.83;2.90;;;12.20;99.90;;;;;;5118350;27;20625;-68
2021/12/19 13:10:02;;;;;;;13.40;2.43;;;12.20;99.90;;;;;;5101979;28;20502;-66
2021/12/19 13:12:49;;;;;;;13.40;1.93;;;12.20;99.90;;;;;;5117290;27;20649;-67
2021/12/19 13:15:36;;;;;;;11.70;1.80;;;12.20;99.90;;;;;;5117629;27;20193;-68
2021/12/19 13:18:22;;;;;;;7.70;1.90;;;12.20;99.90;;;;;;5117212;27;20188;-68
2021/12/19 13:21:09;;;;;;;9.40;1.83;;;12.20;99.90;;;;;;5120712;27;20176;-68
2021/12/19 13:24:05;;;;;;;13.30;2.10;;;12.20;99.90;;;;;;5122493;27;20184;-67
2021/12/19 13:27:10;;;;;;;13.90;1.93;;;12.20;99.90;;;;;;5112822;27;20182;-68
2021/12/19 13:30:20;;;;;;;11.67;2.37;;;12.30;99.90;;;;;;5111645;27;20268;-68
2021/12/19 13:33:18;;;;;;;7.07;1.80;;;12.30;99.90;;;;;;5115536;27;20810;-68
2021/12/19 13:36:05;;;;;;;11.77;1.70;;;12.20;99.90;;;;;;5122356;27;20201;-67
2021/12/19 13:38:53;;;;;;;9.03;1.80;;;12.20;99.90;;;;;;5124247;27;21148;-66
2021/12/19 13:41:40;;;;;;;15.47;2.33;;;12.20;99.90;;;;;;5099301;27;20177;-66
2021/12/19 13:44:33;;;;;;;9.13;2.40;;;12.10;99.90;;;;;;5122785;27;20283;-67
2021/12/19 13:47:24;;;;;;;11.93;2.17;;;12.10;99.90;;;;;;5108451;27;20184;-67
2021/12/19 13:50:11;;;;;;;15.17;2.10;;;12.10;99.90;;;;;;5109975;27;20261;-68
2021/12/19 13:52:58;;;;;;;12.10;2.50;;;12.10;99.90;;;;;;5121747;27;20195;-66
2021/12/19 13:56:10;;;;;;;7.37;1.87;;;12.00;99.90;;;;;;5109824;27;20641;-67
2021/12/19 13:59:19;;;;;;;11.80;2.40;;;12.00;99.90;;;;;;5122143;27;20262;-68
2021/12/19 14:02:11;;;;;;;13.13;2.30;;;12.00;99.90;;;;;;5122363;27;20190;-67
2021/12/19 14:04:58;;;;;;;10.93;2.27;;;12.00;99.90;;;;;;5117713;27;20189;-67
2021/12/19 14:07:44;;;;;;;8.30;2.00;;;12.00;99.90;;;;;;5109752;27;20637;-68
2021/12/19 14:10:31;;;;;;;15.97;3.40;;;12.00;99.90;;;;;;5111438;27;20215;-67
2021/12/19 14:13:31;;;;;;;9.23;2.27;;;12.10;99.90;;;;;;5109779;27;20184;-68
2021/12/19 14:16:47;;;;;;;11.83;2.20;;;12.10;99.90;;;;;;5115911;27;20543;-68
2021/12/19 14:19:39;;;;;;;14.27;2.20;;;12.10;99.90;;;;;;5113153;27;20718;-67
2021/12/19 14:22:26;;;;;;;14.43;3.00;;;12.10;99.90;;;;;;5103766;27;20595;-67
2021/12/19 14:25:13;;;;;;;10.07;2.03;;;12.00;99.90;;;;;;5122435;27;20193;-68
2021/12/19 14:28:36;;;;;;;12.70;2.70;;;12.00;99.90;;;;;;5121835;27;20189;-67
2021/12/19 14:31:22;;;;;;;11.63;2.33;;;12.00;99.90;;;;;;5113104;27;20373;-67
2021/12/19 14:34:32;;;;;;;14.73;2.50;;;12.00;99.90;;;;;;5108608;27;20532;-67
2021/12/19 14:37:33;;;;;;;10.43;1.90;;;11.90;99.90;;;;;;5123597;27;20230;-68
2021/12/19 14:40:22;;;;;;;9.87;2.40;;;11.90;99.90;;;;;;5119781;27;20211;-67
2021/12/19 14:43:12;;;;;;;6.93;1.90;;;11.90;99.90;;;;;;5114066;27;20197;-67
2021/12/19 14:46:02;;;;;;;14.60;2.37;;;11.90;99.90;;;;;;5121790;27;20180;-67
2021/12/19 14:48:48;;;;;;;12.50;2.03;;;11.90;99.90;;;;;;5126295;27;20204;-67
2021/12/19 14:51:36;;;;;;;9.03;2.10;;;11.90;99.90;;;;;;5109613;27;20181;-67
2021/12/19 14:54:24;;;;;;;13.30;2.00;;;11.90;99.90;;;;;;5104598;27;20694;-68
2021/12/19 14:57:11;;;;;;;14.80;2.70;;;12.00;99.90;;;;;;5086783;27;20951;-68
2021/12/19 14:59:57;;;;;;;10.30;2.40;;;11.90;99.90;;;;;;5098281;27;20681;-68
2021/12/19 15:02:44;;;;;;;14.87;2.47;;;11.90;99.90;;;;;;5115165;27;20700;-68
2021/12/19 15:05:32;;;;;;;9.97;2.63;;;11.90;99.90;;;;;;5125540;27;20176;-68
2021/12/19 15:08:25;;;;;;;8.90;1.93;;;11.80;99.90;;;;;;5100866;27;20212;-66
2021/12/19 15:11:12;;;;;;;12.77;2.67;;;11.80;99.90;;;;;;5118479;27;20216;-67
2021/12/19 15:13:59;;;;;;;12.70;2.73;;;11.70;99.90;;;;;;5119740;27;20181;-67
2021/12/19 15:16:46;;;;;;;10.47;1.90;;;11.70;99.90;;;;;;5122367;27;20180;-68
2021/12/19 15:19:32;;;;;;;7.90;1.93;;;11.70;99.90;;;;;;5110453;27;20228;-68
2021/12/19 15:22:19;;;;;;;7.57;1.90;;;11.70;99.90;;;;;;5120950;27;20203;-67
2021/12/19 15:25:06;;;;;;;9.67;1.90;;;11.70;99.90;;;;;;5112175;27;20181;-67
2021/12/19 15:27:53;;;;;;;7.73;1.87;;;11.70;99.90;;;;;;5107336;27;20226;-68
2021/12/19 15:30:40;;;;;;;9.30;2.43;;;11.70;99.90;;;;;;5113456;27;20180;-68
2021/12/19 15:33:27;;;;;;;10.33;2.40;;;11.70;99.90;;;;;;5118409;27;20668;-67
2021/12/19 15:36:15;;;;;;;13.10;3.10;;;11.70;99.90;;;;;;5111776;27;20217;-67
2021/12/19 15:39:06;;;;;;;19.13;3.73;;;11.60;99.90;;;;;;5117321;27;20430;-67
2021/12/19 15:41:53;;;;;;;15.63;2.97;;;11.50;99.90;;;;;;5122057;27;20181;-67
2021/12/19 15:44:39;;;;;;;15.83;3.10;;;11.40;99.90;;;;;;5107481;27;20561;-66
2021/12/19 15:47:26;;;;;;;9.33;2.73;;;11.20;99.90;;;;;;5099922;27;20193;-67